PWSweather.com
Personal Weather Stations
Station Observations

EmmenNL

Lat: 52.74388, Lon: 6.898477

Elevation: 49

Station Type: Davis Vantage Pro2 Plus

http://www.emmenzuidwest.nl

Latest ConditionsUpdated 4:02:12 PM GMT+01:01 Wednesday, Jun 20, 2018
Currently Today's Max Today's Min Today's Average
Temperature 80.1°F26.7°C 80.2°F26.8°C 58.6°F14.8°C 68.6°F20.3°C
Dew Point 63.9°F17.7°C 65.3°F18.5°C 56.1°F13.4°C 61.0°F16.1°C
Winds 3.4 mph S5.5 kmh S 5.4 mph -8.7 kmh - - 2.0 mph 3.2 kmh
Wind Gusts 3.1 mph5.0 kmh 7.4 mph11.9 kmh - -
Humidity 58% 94% 57% 78%
Pressure 30.06 in1017.9 mb 30.21 in1023.0 mb 30.06 in1017.9 mb -
Hour Temp Dew Point Humidity Winds Wind Gusts Pressure Precip Precip Rate Daily Precip Total
04:02 PM 80.1°F26.7°C 63.9°F17.7°C 58% 3.4 mph S5.5 kmh S 3.1 mph5.0 kmh 30.06 in1017.9 mb - 0.00 in0.0 mm 0.00 in0.0 mm
03:57 PM 80.2°F26.8°C 63.5°F17.5°C 57% 2.9 mph S4.7 kmh S 3.1 mph5.0 kmh 30.06 in1017.9 mb - 0.00 in0.0 mm 0.00 in0.0 mm
03:52 PM 80.1°F26.7°C 64.9°F18.3°C 60% 3.6 mph SSW5.8 kmh SSW 2.0 mph3.2 kmh 30.06 in1017.9 mb - 0.00 in0.0 mm 0.00 in0.0 mm
03:47 PM 80.1°F26.7°C 64.4°F18.0°C 59% 4.3 mph WNW6.9 kmh WNW 6.3 mph10.1 kmh 30.07 in1018.3 mb - 0.00 in0.0 mm 0.00 in0.0 mm
03:42 PM 79.9°F26.6°C 63.7°F17.6°C 58% 4.0 mph S6.4 kmh S 3.1 mph5.0 kmh 30.07 in1018.3 mb - 0.00 in0.0 mm 0.00 in0.0 mm
03:37 PM 79.9°F26.6°C 63.7°F17.6°C 58% 4.3 mph S6.9 kmh S 4.3 mph6.9 kmh 30.07 in1018.3 mb - 0.00 in0.0 mm 0.00 in0.0 mm
03:32 PM 80.1°F26.7°C 63.9°F17.7°C 58% 4.3 mph WNW6.9 kmh WNW 7.4 mph11.9 kmh 30.07 in1018.3 mb - 0.00 in0.0 mm 0.00 in0.0 mm
03:27 PM 79.7°F26.5°C 63.5°F17.5°C 58% 2.5 mph SW4.0 kmh SW 3.1 mph5.0 kmh 30.07 in1018.3 mb - 0.00 in0.0 mm 0.00 in0.0 mm
03:22 PM 79.7°F26.5°C 63.5°F17.5°C 58% 3.6 mph WSW5.8 kmh WSW 2.0 mph3.2 kmh 30.07 in1018.3 mb - 0.00 in0.0 mm 0.00 in0.0 mm
03:17 PM 80.1°F26.7°C 63.9°F17.7°C 58% 4.0 mph SW6.4 kmh SW 3.1 mph5.0 kmh 30.07 in1018.3 mb - 0.00 in0.0 mm 0.00 in0.0 mm
03:12 PM 80.1°F26.7°C 63.9°F17.7°C 58% 1.8 mph WSW2.9 kmh WSW 1.1 mph1.8 kmh 30.07 in1018.3 mb - 0.00 in0.0 mm 0.00 in0.0 mm
03:07 PM 79.9°F26.6°C 64.8°F18.2°C 60% 2.5 mph WNW4.0 kmh WNW 1.1 mph1.8 kmh 30.07 in1018.3 mb - 0.00 in0.0 mm 0.00 in0.0 mm
03:02 PM 80.1°F26.7°C 63.9°F17.7°C 58% 3.6 mph SSE5.8 kmh SSE 3.1 mph5.0 kmh 30.07 in1018.3 mb - 0.00 in0.0 mm 0.00 in0.0 mm
02:57 PM 80.1°F26.7°C 64.4°F18.0°C 59% 3.8 mph SSE6.1 kmh SSE 6.3 mph10.1 kmh 30.07 in1018.3 mb - 0.00 in0.0 mm 0.00 in0.0 mm
02:52 PM 79.9°F26.6°C 64.8°F18.2°C 60% 3.8 mph S6.1 kmh S 4.3 mph6.9 kmh 30.07 in1018.3 mb - 0.00 in0.0 mm 0.00 in0.0 mm
02:47 PM 79.7°F26.5°C 64.6°F18.1°C 60% 2.0 mph SW3.2 kmh SW 2.0 mph3.2 kmh 30.07 in1018.3 mb - 0.00 in0.0 mm 0.00 in0.0 mm
02:42 PM 79.5°F26.4°C 64.4°F18.0°C 60% 1.8 mph SW2.9 kmh SW 2.0 mph3.2 kmh 30.07 in1018.3 mb - 0.00 in0.0 mm 0.00 in0.0 mm
02:37 PM 79.5°F26.4°C 63.9°F17.7°C 59% 2.9 mph WSW4.7 kmh WSW -- 30.07 in1018.3 mb - 0.00 in0.0 mm 0.00 in0.0 mm
02:32 PM 79.3°F26.3°C 64.2°F17.9°C 60% 3.6 mph SSW5.8 kmh SSW 5.4 mph8.7 kmh 30.07 in1018.3 mb - 0.00 in0.0 mm 0.00 in0.0 mm
02:27 PM 79.5°F26.4°C 63.9°F17.7°C 59% 3.1 mph SW5.0 kmh SW 3.1 mph5.0 kmh 30.08 in1018.6 mb - 0.00 in0.0 mm 0.00 in0.0 mm
02:22 PM 79.3°F26.3°C 64.8°F18.2°C 61% 4.3 mph SSW6.9 kmh SSW 3.1 mph5.0 kmh 30.08 in1018.6 mb - 0.00 in0.0 mm 0.00 in0.0 mm
02:17 PM 79.2°F26.2°C 64.6°F18.1°C 61% 3.4 mph S5.5 kmh S 4.3 mph6.9 kmh 30.08 in1018.6 mb - 0.00 in0.0 mm 0.00 in0.0 mm
02:12 PM 78.8°F26.0°C 65.1°F18.4°C 63% 4.0 mph SW6.4 kmh SW 5.4 mph8.7 kmh 30.08 in1018.6 mb - 0.00 in0.0 mm 0.00 in0.0 mm
02:07 PM 78.6°F25.9°C 65.3°F18.5°C 64% 2.9 mph SW4.7 kmh SW 3.1 mph5.0 kmh 30.08 in1018.6 mb - 0.00 in0.0 mm 0.00 in0.0 mm
02:02 PM 78.3°F25.7°C 63.1°F17.3°C 60% 3.1 mph S5.0 kmh S 4.3 mph6.9 kmh 30.08 in1018.6 mb - 0.00 in0.0 mm 0.00 in0.0 mm
01:57 PM 78.1°F25.6°C 63.5°F17.5°C 61% 2.7 mph SSW4.3 kmh SSW 2.0 mph3.2 kmh 30.09 in1019.0 mb - 0.00 in0.0 mm 0.00 in0.0 mm
01:52 PM 77.9°F25.5°C 63.9°F17.7°C 62% 3.1 mph WSW5.0 kmh WSW 3.1 mph5.0 kmh 30.09 in1019.0 mb - 0.00 in0.0 mm 0.00 in0.0 mm
01:47 PM 77.9°F25.5°C 63.9°F17.7°C 62% 5.4 mph SSW8.7 kmh SSW 5.4 mph8.7 kmh 30.09 in1019.0 mb - 0.00 in0.0 mm 0.00 in0.0 mm
01:42 PM 77.9°F25.5°C 63.3°F17.4°C 61% 4.3 mph S6.9 kmh S 2.0 mph3.2 kmh 30.09 in1019.0 mb - 0.00 in0.0 mm 0.00 in0.0 mm
01:37 PM 77.5°F25.3°C 64.4°F18.0°C 64% 4.7 mph S7.6 kmh S 5.4 mph8.7 kmh 30.09 in1019.0 mb - 0.00 in0.0 mm 0.00 in0.0 mm
01:32 PM 77.4°F25.2°C 63.7°F17.6°C 63% 3.8 mph SSW6.1 kmh SSW 1.1 mph1.8 kmh 30.09 in1019.0 mb - 0.00 in0.0 mm 0.00 in0.0 mm
01:27 PM 77.4°F25.2°C 63.3°F17.4°C 62% 2.2 mph WNW3.5 kmh WNW 1.1 mph1.8 kmh 30.10 in1019.3 mb - 0.00 in0.0 mm 0.00 in0.0 mm
01:22 PM 77.7°F25.4°C 63.7°F17.6°C 62% 3.4 mph S5.5 kmh S 3.1 mph5.0 kmh 30.10 in1019.3 mb - 0.00 in0.0 mm 0.00 in0.0 mm
01:17 PM 78.1°F25.6°C 63.0°F17.2°C 60% 3.4 mph 5.5 kmh 3.1 mph5.0 kmh 30.10 in1019.3 mb - 0.00 in0.0 mm 0.00 in0.0 mm
01:12 PM 78.4°F25.8°C 64.2°F17.9°C 62% 3.6 mph S5.8 kmh S 3.1 mph5.0 kmh 30.11 in1019.6 mb - 0.00 in0.0 mm 0.00 in0.0 mm
01:07 PM 78.3°F25.7°C 64.0°F17.8°C 62% 3.1 mph SW5.0 kmh SW 3.1 mph5.0 kmh 30.11 in1019.6 mb - 0.00 in0.0 mm 0.00 in0.0 mm
01:02 PM 77.7°F25.4°C 64.6°F18.1°C 64% 3.6 mph SW5.8 kmh SW 2.0 mph3.2 kmh 30.11 in1019.6 mb - 0.00 in0.0 mm 0.00 in0.0 mm
12:57 PM 77.0°F25.0°C 63.9°F17.7°C 64% 2.7 mph SW4.3 kmh SW 3.1 mph5.0 kmh 30.11 in1019.6 mb - 0.00 in0.0 mm 0.00 in0.0 mm
12:52 PM 76.6°F24.8°C 64.0°F17.8°C 65% 3.6 mph S5.8 kmh S 4.3 mph6.9 kmh 30.11 in1019.6 mb - 0.00 in0.0 mm 0.00 in0.0 mm
12:47 PM 76.5°F24.7°C 63.3°F17.4°C 64% 4.3 mph SW6.9 kmh SW 2.0 mph3.2 kmh 30.11 in1019.6 mb - 0.00 in0.0 mm 0.00 in0.0 mm
12:42 PM 76.5°F24.7°C 63.9°F17.7°C 65% 3.4 mph WSW5.5 kmh WSW 2.0 mph3.2 kmh 30.11 in1019.6 mb - 0.00 in0.0 mm 0.00 in0.0 mm
12:37 PM 76.1°F24.5°C 63.5°F17.5°C 65% 2.7 mph SSW4.3 kmh SSW 5.4 mph8.7 kmh 30.11 in1019.6 mb - 0.00 in0.0 mm 0.00 in0.0 mm
12:32 PM 75.9°F24.4°C 63.7°F17.6°C 66% 1.6 mph S2.6 kmh S -- 30.12 in1020.0 mb - 0.00 in0.0 mm 0.00 in0.0 mm
12:27 PM 76.1°F24.5°C 63.5°F17.5°C 65% 2.9 mph SW4.7 kmh SW 4.3 mph6.9 kmh 30.11 in1019.6 mb - 0.00 in0.0 mm 0.00 in0.0 mm
12:22 PM 76.1°F24.5°C 63.9°F17.7°C 66% 2.9 mph S4.7 kmh S 3.1 mph5.0 kmh 30.12 in1020.0 mb - 0.00 in0.0 mm 0.00 in0.0 mm
12:17 PM 76.1°F24.5°C 63.0°F17.2°C 64% 4.5 mph W7.2 kmh W 7.4 mph11.9 kmh 30.12 in1020.0 mb - 0.00 in0.0 mm 0.00 in0.0 mm
12:12 PM 76.3°F24.6°C 64.0°F17.8°C 66% 2.9 mph SSW4.7 kmh SSW 1.1 mph1.8 kmh 30.12 in1020.0 mb - 0.00 in0.0 mm 0.00 in0.0 mm
12:07 PM 76.1°F24.5°C 63.5°F17.5°C 65% 2.2 mph SSW3.5 kmh SSW 3.1 mph5.0 kmh 30.12 in1020.0 mb - 0.00 in0.0 mm 0.00 in0.0 mm
12:02 PM 76.3°F24.6°C 63.7°F17.6°C 65% 2.9 mph SSW4.7 kmh SSW 2.0 mph3.2 kmh 30.12 in1020.0 mb - 0.00 in0.0 mm 0.00 in0.0 mm
11:57 AM 76.1°F24.5°C 63.9°F17.7°C 66% 3.1 mph WSW5.0 kmh WSW 3.1 mph5.0 kmh 30.13 in1020.3 mb - 0.00 in0.0 mm 0.00 in0.0 mm
11:52 AM 76.1°F24.5°C 63.9°F17.7°C 66% 3.8 mph SW6.1 kmh SW 4.3 mph6.9 kmh 30.13 in1020.3 mb - 0.00 in0.0 mm 0.00 in0.0 mm
11:47 AM 75.7°F24.3°C 63.5°F17.5°C 66% 3.1 mph WSW5.0 kmh WSW 3.1 mph5.0 kmh 30.13 in1020.3 mb - 0.00 in0.0 mm 0.00 in0.0 mm
11:42 AM 75.7°F24.3°C 63.5°F17.5°C 66% 2.9 mph SSW4.7 kmh SSW 4.3 mph6.9 kmh 30.13 in1020.3 mb - 0.00 in0.0 mm 0.00 in0.0 mm
11:37 AM 75.4°F24.1°C 64.0°F17.8°C 68% 2.2 mph SSE3.5 kmh SSE 3.1 mph5.0 kmh 30.13 in1020.3 mb - 0.00 in0.0 mm 0.00 in0.0 mm
11:32 AM 75.4°F24.1°C 63.1°F17.3°C 66% 3.1 mph SSW5.0 kmh SSW 4.3 mph6.9 kmh 30.13 in1020.3 mb - 0.00 in0.0 mm 0.00 in0.0 mm
11:27 AM 75.2°F24.0°C 63.0°F17.2°C 66% 4.0 mph SSW6.4 kmh SSW 3.1 mph5.0 kmh 30.13 in1020.3 mb - 0.00 in0.0 mm 0.00 in0.0 mm
11:22 AM 75.2°F24.0°C 63.5°F17.5°C 67% 2.9 mph SW4.7 kmh SW 3.1 mph5.0 kmh 30.13 in1020.3 mb - 0.00 in0.0 mm 0.00 in0.0 mm
11:17 AM 74.8°F23.8°C 63.5°F17.5°C 68% 2.9 mph S4.7 kmh S 1.1 mph1.8 kmh 30.13 in1020.3 mb - 0.00 in0.0 mm 0.00 in0.0 mm
11:12 AM 74.3°F23.5°C 63.5°F17.5°C 69% 2.9 mph S4.7 kmh S 3.1 mph5.0 kmh 30.13 in1020.3 mb - 0.00 in0.0 mm 0.00 in0.0 mm
11:07 AM 74.3°F23.5°C 63.0°F17.2°C 68% 2.5 mph WSW4.0 kmh WSW 3.1 mph5.0 kmh 30.13 in1020.3 mb - 0.00 in0.0 mm 0.00 in0.0 mm
11:02 AM 73.9°F23.3°C 63.1°F17.3°C 69% 3.6 mph S5.8 kmh S 5.4 mph8.7 kmh 30.13 in1020.3 mb - 0.00 in0.0 mm 0.00 in0.0 mm
10:57 AM 73.8°F23.2°C 63.3°F17.4°C 70% 3.8 mph WSW6.1 kmh WSW 4.3 mph6.9 kmh 30.14 in1020.7 mb - 0.00 in0.0 mm 0.00 in0.0 mm
10:52 AM 73.4°F23.0°C 63.0°F17.2°C 70% 2.9 mph SSE4.7 kmh SSE 4.3 mph6.9 kmh 30.14 in1020.7 mb - 0.00 in0.0 mm 0.00 in0.0 mm
10:47 AM 73.2°F22.9°C 62.8°F17.1°C 70% 2.5 mph SW4.0 kmh SW 5.4 mph8.7 kmh 30.14 in1020.7 mb - 0.00 in0.0 mm 0.00 in0.0 mm
10:42 AM 73.0°F22.8°C 62.6°F17.0°C 70% 3.6 mph S5.8 kmh S 1.1 mph1.8 kmh 30.14 in1020.7 mb - 0.00 in0.0 mm 0.00 in0.0 mm
10:37 AM 73.0°F22.8°C 63.0°F17.2°C 71% 3.6 mph S5.8 kmh S 5.4 mph8.7 kmh 30.14 in1020.7 mb - 0.00 in0.0 mm 0.00 in0.0 mm
10:32 AM 72.9°F22.7°C 62.4°F16.9°C 70% 1.8 mph S2.9 kmh S 2.0 mph3.2 kmh 30.14 in1020.7 mb - 0.00 in0.0 mm 0.00 in0.0 mm
10:27 AM 73.0°F22.8°C 62.6°F17.0°C 70% 3.1 mph SW5.0 kmh SW 2.0 mph3.2 kmh 30.14 in1020.7 mb - 0.00 in0.0 mm 0.00 in0.0 mm
10:22 AM 73.0°F22.8°C 62.2°F16.8°C 69% 2.5 mph SE4.0 kmh SE 1.1 mph1.8 kmh 30.14 in1020.7 mb - 0.00 in0.0 mm 0.00 in0.0 mm
10:17 AM 73.0°F22.8°C 62.2°F16.8°C 69% 2.0 mph S3.2 kmh S 3.1 mph5.0 kmh 30.14 in1020.7 mb - 0.00 in0.0 mm 0.00 in0.0 mm
10:12 AM 73.4°F23.0°C 62.2°F16.8°C 68% 2.5 mph S4.0 kmh S -- 30.14 in1020.7 mb - 0.00 in0.0 mm 0.00 in0.0 mm
10:07 AM 73.8°F23.2°C 63.0°F17.2°C 69% 3.4 mph SW5.5 kmh SW 4.3 mph6.9 kmh 30.14 in1020.7 mb - 0.00 in0.0 mm 0.00 in0.0 mm
10:02 AM 73.9°F23.3°C 63.1°F17.3°C 69% 2.5 mph SW4.0 kmh SW 3.1 mph5.0 kmh 30.14 in1020.7 mb - 0.00 in0.0 mm 0.00 in0.0 mm
09:57 AM 73.8°F23.2°C 63.0°F17.2°C 69% 2.5 mph SW4.0 kmh SW 5.4 mph8.7 kmh 30.14 in1020.7 mb - 0.00 in0.0 mm 0.00 in0.0 mm
09:52 AM 73.8°F23.2°C 63.0°F17.2°C 69% 3.1 mph WSW5.0 kmh WSW 2.0 mph3.2 kmh 30.14 in1020.7 mb - 0.00 in0.0 mm 0.00 in0.0 mm
09:47 AM 73.9°F23.3°C 62.6°F17.0°C 68% 3.4 mph WSW5.5 kmh WSW 1.1 mph1.8 kmh 30.14 in1020.7 mb - 0.00 in0.0 mm 0.00 in0.0 mm
09:42 AM 73.9°F23.3°C 62.2°F16.8°C 67% 2.5 mph SW4.0 kmh SW -- 30.14 in1020.7 mb - 0.00 in0.0 mm 0.00 in0.0 mm
09:37 AM 74.1°F23.4°C 62.8°F17.1°C 68% 3.6 mph S5.8 kmh S 2.0 mph3.2 kmh 30.14 in1020.7 mb - 0.00 in0.0 mm 0.00 in0.0 mm
09:32 AM 74.3°F23.5°C 63.0°F17.2°C 68% 3.4 mph SW5.5 kmh SW 5.4 mph8.7 kmh 30.14 in1020.7 mb - 0.00 in0.0 mm 0.00 in0.0 mm
09:27 AM 74.3°F23.5°C 63.5°F17.5°C 69% 4.3 mph S6.9 kmh S 6.3 mph10.1 kmh 30.15 in1021.0 mb - 0.00 in0.0 mm 0.00 in0.0 mm
09:22 AM 73.9°F23.3°C 63.1°F17.3°C 69% 4.0 mph SW6.4 kmh SW 3.1 mph5.0 kmh 30.15 in1021.0 mb - 0.00 in0.0 mm 0.00 in0.0 mm
09:17 AM 73.8°F23.2°C 63.3°F17.4°C 70% 4.0 mph WSW6.4 kmh WSW 3.1 mph5.0 kmh 30.15 in1021.0 mb - 0.00 in0.0 mm 0.00 in0.0 mm
09:12 AM 73.6°F23.1°C 63.1°F17.3°C 70% 2.7 mph SW4.3 kmh SW 2.0 mph3.2 kmh 30.15 in1021.0 mb - 0.00 in0.0 mm 0.00 in0.0 mm
09:07 AM 73.2°F22.9°C 63.1°F17.3°C 71% 4.3 mph S6.9 kmh S 4.3 mph6.9 kmh 30.15 in1021.0 mb - 0.00 in0.0 mm 0.00 in0.0 mm
09:02 AM 73.2°F22.9°C 63.1°F17.3°C 71% 3.4 mph WSW5.5 kmh WSW 4.3 mph6.9 kmh 30.15 in1021.0 mb - 0.00 in0.0 mm 0.00 in0.0 mm
08:57 AM 73.0°F22.8°C 63.0°F17.2°C 71% 3.4 mph SSW5.5 kmh SSW 4.3 mph6.9 kmh 30.15 in1021.0 mb - 0.00 in0.0 mm 0.00 in0.0 mm
08:52 AM 72.9°F22.7°C 63.7°F17.6°C 73% 2.5 mph SW4.0 kmh SW 3.1 mph5.0 kmh 30.15 in1021.0 mb - 0.00 in0.0 mm 0.00 in0.0 mm
08:47 AM 72.5°F22.5°C 63.3°F17.4°C 73% 3.6 mph SSW5.8 kmh SSW 2.0 mph3.2 kmh 30.15 in1021.0 mb - 0.00 in0.0 mm 0.00 in0.0 mm
08:42 AM 72.1°F22.3°C 63.7°F17.6°C 75% 4.7 mph SW7.6 kmh SW 2.0 mph3.2 kmh 30.15 in1021.0 mb - 0.00 in0.0 mm 0.00 in0.0 mm
08:37 AM 72.0°F22.2°C 64.0°F17.8°C 76% 3.1 mph SE5.0 kmh SE 2.0 mph3.2 kmh 30.15 in1021.0 mb - 0.00 in0.0 mm 0.00 in0.0 mm
08:32 AM 71.4°F21.9°C 63.5°F17.5°C 76% 2.2 mph SW3.5 kmh SW 1.1 mph1.8 kmh 30.15 in1021.0 mb - 0.00 in0.0 mm 0.00 in0.0 mm
08:27 AM 71.1°F21.7°C 63.1°F17.3°C 76% 3.6 mph WSW5.8 kmh WSW 3.1 mph5.0 kmh 30.15 in1021.0 mb - 0.00 in0.0 mm 0.00 in0.0 mm
08:22 AM 70.7°F21.5°C 63.1°F17.3°C 77% 5.1 mph SSW8.2 kmh SSW 4.3 mph6.9 kmh 30.15 in1021.0 mb - 0.00 in0.0 mm 0.00 in0.0 mm
08:17 AM 70.5°F21.4°C 63.3°F17.4°C 78% 3.1 mph WSW5.0 kmh WSW 3.1 mph5.0 kmh 30.15 in1021.0 mb - 0.00 in0.0 mm 0.00 in0.0 mm
08:12 AM 70.0°F21.1°C 62.8°F17.1°C 78% 1.8 mph SW2.9 kmh SW 4.3 mph6.9 kmh 30.15 in1021.0 mb - 0.00 in0.0 mm 0.00 in0.0 mm
08:07 AM 69.6°F20.9°C 63.5°F17.5°C 81% 3.1 mph SW5.0 kmh SW 4.3 mph6.9 kmh 30.15 in1021.0 mb - 0.00 in0.0 mm 0.00 in0.0 mm
08:02 AM 69.3°F20.7°C 63.1°F17.3°C 81% 2.2 mph SSW3.5 kmh SSW 3.1 mph5.0 kmh 30.15 in1021.0 mb - 0.00 in0.0 mm 0.00 in0.0 mm
07:57 AM 68.7°F20.4°C 63.0°F17.2°C 82% 2.2 mph S3.5 kmh S 3.1 mph5.0 kmh 30.15 in1021.0 mb - 0.00 in0.0 mm 0.00 in0.0 mm
07:52 AM 68.4°F20.2°C 63.0°F17.2°C 83% 2.0 mph S3.2 kmh S 3.1 mph5.0 kmh 30.15 in1021.0 mb - 0.00 in0.0 mm 0.00 in0.0 mm
07:47 AM 67.8°F19.9°C 63.1°F17.3°C 85% 3.6 mph S5.8 kmh S 5.4 mph8.7 kmh 30.15 in1021.0 mb - 0.00 in0.0 mm 0.00 in0.0 mm
07:42 AM 67.5°F19.7°C 63.5°F17.5°C 87% 3.8 mph SSW6.1 kmh SSW 3.1 mph5.0 kmh 30.15 in1021.0 mb - 0.00 in0.0 mm 0.00 in0.0 mm
07:37 AM 66.9°F19.4°C 63.3°F17.4°C 88% 3.4 mph S5.5 kmh S 2.0 mph3.2 kmh 30.15 in1021.0 mb - 0.00 in0.0 mm 0.00 in0.0 mm
07:32 AM 66.7°F19.3°C 63.3°F17.4°C 89% 3.4 mph SSW5.5 kmh SSW 5.4 mph8.7 kmh 30.16 in1021.3 mb - 0.00 in0.0 mm 0.00 in0.0 mm
07:27 AM 66.2°F19.0°C 63.5°F17.5°C 91% 2.2 mph SSW3.5 kmh SSW 4.3 mph6.9 kmh 30.16 in1021.3 mb - 0.00 in0.0 mm 0.00 in0.0 mm
07:22 AM 65.8°F18.8°C 63.1°F17.3°C 91% 2.5 mph SW4.0 kmh SW 1.1 mph1.8 kmh 30.16 in1021.3 mb - 0.00 in0.0 mm 0.00 in0.0 mm
07:17 AM 65.3°F18.5°C 63.0°F17.2°C 92% 1.8 mph S2.9 kmh S 2.0 mph3.2 kmh 30.16 in1021.3 mb - 0.00 in0.0 mm 0.00 in0.0 mm
07:12 AM 65.1°F18.4°C 63.0°F17.2°C 93% 1.6 mph S2.6 kmh S 1.1 mph1.8 kmh 30.16 in1021.3 mb - 0.00 in0.0 mm 0.00 in0.0 mm
07:07 AM 64.8°F18.2°C 62.6°F17.0°C 93% 3.1 mph S5.0 kmh S 2.0 mph3.2 kmh 30.16 in1021.3 mb - 0.00 in0.0 mm 0.00 in0.0 mm
07:02 AM 64.4°F18.0°C 62.2°F16.8°C 93% 1.6 mph S2.6 kmh S 3.1 mph5.0 kmh 30.16 in1021.3 mb - 0.00 in0.0 mm 0.00 in0.0 mm
06:57 AM 64.0°F17.8°C 62.2°F16.8°C 94% 1.8 mph SSW2.9 kmh SSW 2.0 mph3.2 kmh 30.16 in1021.3 mb - 0.00 in0.0 mm 0.00 in0.0 mm
06:52 AM 63.7°F17.6°C 61.9°F16.6°C 94% 0.7 mph S1.1 kmh S 1.1 mph1.8 kmh 30.16 in1021.3 mb - 0.00 in0.0 mm 0.00 in0.0 mm
06:47 AM 63.3°F17.4°C 61.5°F16.4°C 94% 1.8 mph S2.9 kmh S 2.0 mph3.2 kmh 30.16 in1021.3 mb - 0.00 in0.0 mm 0.00 in0.0 mm
06:42 AM 63.1°F17.3°C 61.3°F16.3°C 94% 1.3 mph SSW2.1 kmh SSW 3.1 mph5.0 kmh 30.17 in1021.7 mb - 0.00 in0.0 mm 0.00 in0.0 mm
06:37 AM 63.0°F17.2°C 61.2°F16.2°C 94% 0.2 mph S0.3 kmh S -- 30.16 in1021.3 mb - 0.00 in0.0 mm 0.00 in0.0 mm
06:32 AM 62.6°F17.0°C 60.8°F16.0°C 94% 0.9 mph S1.4 kmh S 1.1 mph1.8 kmh 30.17 in1021.7 mb - 0.00 in0.0 mm 0.00 in0.0 mm
06:27 AM 62.4°F16.9°C 60.6°F15.9°C 94% 1.3 mph S2.1 kmh S 1.1 mph1.8 kmh 30.17 in1021.7 mb - 0.00 in0.0 mm 0.00 in0.0 mm
06:22 AM 62.1°F16.7°C 60.3°F15.7°C 94% 0.7 mph S1.1 kmh S -- 30.17 in1021.7 mb - 0.00 in0.0 mm 0.00 in0.0 mm
06:17 AM 61.7°F16.5°C 59.9°F15.5°C 94% 1.3 mph S2.1 kmh S 1.1 mph1.8 kmh 30.17 in1021.7 mb - 0.00 in0.0 mm 0.00 in0.0 mm
06:12 AM 61.5°F16.4°C 59.7°F15.4°C 94% 1.8 mph S2.9 kmh S 1.1 mph1.8 kmh 30.17 in1021.7 mb - 0.00 in0.0 mm 0.00 in0.0 mm
06:07 AM 61.3°F16.3°C 59.5°F15.3°C 94% 0.9 mph S1.4 kmh S 2.0 mph3.2 kmh 30.17 in1021.7 mb - 0.00 in0.0 mm 0.00 in0.0 mm
06:02 AM 61.2°F16.2°C 59.4°F15.2°C 94% 0.7 mph S1.1 kmh S 2.0 mph3.2 kmh 30.17 in1021.7 mb - 0.00 in0.0 mm 0.00 in0.0 mm
05:57 AM 60.8°F16.0°C 59.0°F15.0°C 94% Calm Calm -- 30.17 in1021.7 mb - 0.00 in0.0 mm 0.00 in0.0 mm
05:52 AM 60.4°F15.8°C 58.6°F14.8°C 94% 0.4 mph S0.6 kmh S -- 30.17 in1021.7 mb - 0.00 in0.0 mm 0.00 in0.0 mm
05:47 AM 60.3°F15.7°C 58.5°F14.7°C 94% 1.6 mph S2.6 kmh S -- 30.17 in1021.7 mb - 0.00 in0.0 mm 0.00 in0.0 mm
05:42 AM 59.9°F15.5°C 58.1°F14.5°C 94% 1.3 mph S2.1 kmh S -- 30.17 in1021.7 mb - 0.00 in0.0 mm 0.00 in0.0 mm
05:37 AM 59.7°F15.4°C 57.7°F14.3°C 93% 0.7 mph S1.1 kmh S 1.1 mph1.8 kmh 30.17 in1021.7 mb - 0.00 in0.0 mm 0.00 in0.0 mm
05:32 AM 59.5°F15.3°C 57.6°F14.2°C 93% 0.7 mph S1.1 kmh S -- 30.17 in1021.7 mb - 0.00 in0.0 mm 0.00 in0.0 mm
05:27 AM 59.4°F15.2°C 57.4°F14.1°C 93% 0.2 mph S0.3 kmh S 1.1 mph1.8 kmh 30.17 in1021.7 mb - 0.00 in0.0 mm 0.00 in0.0 mm
05:22 AM 59.4°F15.2°C 57.4°F14.1°C 93% Calm Calm -- 30.17 in1021.7 mb - 0.00 in0.0 mm 0.00 in0.0 mm
05:17 AM 59.4°F15.2°C 57.4°F14.1°C 93% Calm Calm -- 30.17 in1021.7 mb - 0.00 in0.0 mm 0.00 in0.0 mm
05:12 AM 59.4°F15.2°C 57.4°F14.1°C 93% Calm Calm -- 30.17 in1021.7 mb - 0.00 in0.0 mm 0.00 in0.0 mm
05:07 AM 59.4°F15.2°C 57.4°F14.1°C 93% Calm Calm -- 30.17 in1021.7 mb - 0.00 in0.0 mm 0.00 in0.0 mm
05:02 AM 59.4°F15.2°C 57.4°F14.1°C 93% 0.4 mph S0.6 kmh S -- 30.17 in1021.7 mb - 0.00 in0.0 mm 0.00 in0.0 mm
04:57 AM 59.2°F15.1°C 57.2°F14.0°C 93% 1.1 mph S1.8 kmh S -- 30.17 in1021.7 mb - 0.00 in0.0 mm 0.00 in0.0 mm
04:52 AM 59.2°F15.1°C 57.2°F14.0°C 93% 0.2 mph S0.3 kmh S 1.1 mph1.8 kmh 30.17 in1021.7 mb - 0.00 in0.0 mm 0.00 in0.0 mm
04:47 AM 59.0°F15.0°C 57.0°F13.9°C 93% 1.6 mph S2.6 kmh S 1.1 mph1.8 kmh 30.17 in1021.7 mb - 0.00 in0.0 mm 0.00 in0.0 mm
04:42 AM 59.0°F15.0°C 57.0°F13.9°C 93% 0.2 mph S0.3 kmh S 1.1 mph1.8 kmh 30.17 in1021.7 mb - 0.00 in0.0 mm 0.00 in0.0 mm
04:37 AM 59.0°F15.0°C 57.0°F13.9°C 93% 0.4 mph S0.6 kmh S -- 30.17 in1021.7 mb - 0.00 in0.0 mm 0.00 in0.0 mm
04:32 AM 59.0°F15.0°C 57.0°F13.9°C 93% 1.1 mph S1.8 kmh S 1.1 mph1.8 kmh 30.17 in1021.7 mb - 0.00 in0.0 mm 0.00 in0.0 mm
04:27 AM 58.8°F14.9°C 56.8°F13.8°C 93% 0.7 mph S1.1 kmh S 2.0 mph3.2 kmh 30.17 in1021.7 mb - 0.00 in0.0 mm 0.00 in0.0 mm
04:22 AM 58.8°F14.9°C 56.5°F13.6°C 92% 1.6 mph S2.6 kmh S 2.0 mph3.2 kmh 30.17 in1021.7 mb - 0.00 in0.0 mm 0.00 in0.0 mm
04:17 AM 58.6°F14.8°C 56.3°F13.5°C 92% 0.7 mph S1.1 kmh S 2.0 mph3.2 kmh 30.17 in1021.7 mb - 0.00 in0.0 mm 0.00 in0.0 mm
04:12 AM 58.6°F14.8°C 56.3°F13.5°C 92% 0.9 mph S1.4 kmh S -- 30.17 in1021.7 mb - 0.00 in0.0 mm 0.00 in0.0 mm
04:07 AM 58.6°F14.8°C 56.3°F13.5°C 92% 0.4 mph S0.6 kmh S 1.1 mph1.8 kmh 30.17 in1021.7 mb - 0.00 in0.0 mm 0.00 in0.0 mm
04:02 AM 58.6°F14.8°C 56.3°F13.5°C 92% 0.7 mph S1.1 kmh S -- 30.17 in1021.7 mb - 0.00 in0.0 mm 0.00 in0.0 mm
03:57 AM 58.6°F14.8°C 56.3°F13.5°C 92% Calm Calm -- 30.18 in1022.0 mb - 0.00 in0.0 mm 0.00 in0.0 mm
03:52 AM 58.8°F14.9°C 56.5°F13.6°C 92% Calm Calm -- 30.18 in1022.0 mb - 0.00 in0.0 mm 0.00 in0.0 mm
03:47 AM 58.8°F14.9°C 56.5°F13.6°C 92% 0.2 mph S0.3 kmh S -- 30.18 in1022.0 mb - 0.00 in0.0 mm 0.00 in0.0 mm
03:42 AM 58.8°F14.9°C 56.5°F13.6°C 92% 0.9 mph S1.4 kmh S -- 30.18 in1022.0 mb - 0.00 in0.0 mm 0.00 in0.0 mm
03:37 AM 58.8°F14.9°C 56.1°F13.4°C 91% 0.4 mph S0.6 kmh S -- 30.18 in1022.0 mb - 0.00 in0.0 mm 0.00 in0.0 mm
03:32 AM 58.8°F14.9°C 56.1°F13.4°C 91% Calm Calm -- 30.18 in1022.0 mb - 0.00 in0.0 mm 0.00 in0.0 mm
03:27 AM 59.0°F15.0°C 56.3°F13.5°C 91% 0.4 mph S0.6 kmh S -- 30.18 in1022.0 mb - 0.00 in0.0 mm 0.00 in0.0 mm
03:22 AM 59.0°F15.0°C 56.3°F13.5°C 91% Calm Calm -- 30.18 in1022.0 mb - 0.00 in0.0 mm 0.00 in0.0 mm
03:17 AM 59.2°F15.1°C 56.5°F13.6°C 91% Calm Calm -- 30.18 in1022.0 mb - 0.00 in0.0 mm 0.00 in0.0 mm
03:12 AM 59.2°F15.1°C 56.5°F13.6°C 91% 1.1 mph S1.8 kmh S 1.1 mph1.8 kmh 30.18 in1022.0 mb - 0.00 in0.0 mm 0.00 in0.0 mm
03:07 AM 59.4°F15.2°C 56.7°F13.7°C 91% Calm Calm -- 30.18 in1022.0 mb - 0.00 in0.0 mm 0.00 in0.0 mm
03:02 AM 59.4°F15.2°C 56.7°F13.7°C 91% Calm Calm -- 30.18 in1022.0 mb - 0.00 in0.0 mm 0.00 in0.0 mm
02:57 AM 59.5°F15.3°C 56.8°F13.8°C 91% Calm Calm -- 30.18 in1022.0 mb - 0.00 in0.0 mm 0.00 in0.0 mm
02:52 AM 59.5°F15.3°C 56.8°F13.8°C 91% Calm Calm -- 30.18 in1022.0 mb - 0.00 in0.0 mm 0.00 in0.0 mm
02:47 AM 59.5°F15.3°C 56.8°F13.8°C 91% 1.6 mph S2.6 kmh S 1.1 mph1.8 kmh 30.18 in1022.0 mb - 0.00 in0.0 mm 0.00 in0.0 mm
02:42 AM 59.5°F15.3°C 56.7°F13.7°C 90% 0.7 mph SSW1.1 kmh SSW 1.1 mph1.8 kmh 30.18 in1022.0 mb - 0.00 in0.0 mm 0.00 in0.0 mm
02:37 AM 59.7°F15.4°C 56.8°F13.8°C 90% Calm Calm -- 30.19 in1022.4 mb - 0.00 in0.0 mm 0.00 in0.0 mm
02:32 AM 59.7°F15.4°C 56.8°F13.8°C 90% Calm Calm -- 30.19 in1022.4 mb - 0.00 in0.0 mm 0.00 in0.0 mm
02:27 AM 59.7°F15.4°C 56.8°F13.8°C 90% Calm Calm -- 30.18 in1022.0 mb - 0.00 in0.0 mm 0.00 in0.0 mm
02:22 AM 59.7°F15.4°C 56.8°F13.8°C 90% 0.7 mph SSW1.1 kmh SSW -- 30.18 in1022.0 mb - 0.00 in0.0 mm 0.00 in0.0 mm
02:17 AM 59.9°F15.5°C 57.0°F13.9°C 90% Calm Calm -- 30.18 in1022.0 mb - 0.00 in0.0 mm 0.00 in0.0 mm
02:12 AM 59.9°F15.5°C 56.7°F13.7°C 89% Calm Calm -- 30.18 in1022.0 mb - 0.00 in0.0 mm 0.00 in0.0 mm
02:07 AM 59.9°F15.5°C 56.7°F13.7°C 89% Calm Calm -- 30.18 in1022.0 mb - 0.00 in0.0 mm 0.00 in0.0 mm
02:02 AM 60.1°F15.6°C 56.8°F13.8°C 89% Calm Calm -- 30.19 in1022.4 mb - 0.00 in0.0 mm 0.00 in0.0 mm
01:57 AM 60.3°F15.7°C 57.0°F13.9°C 89% 0.2 mph SSW0.3 kmh SSW -- 30.19 in1022.4 mb - 0.00 in0.0 mm 0.00 in0.0 mm
01:52 AM 60.4°F15.8°C 57.2°F14.0°C 89% Calm Calm -- 30.19 in1022.4 mb - 0.00 in0.0 mm 0.00 in0.0 mm
01:47 AM 60.4°F15.8°C 57.2°F14.0°C 89% Calm Calm -- 30.19 in1022.4 mb - 0.00 in0.0 mm 0.00 in0.0 mm
01:42 AM 60.6°F15.9°C 57.0°F13.9°C 88% Calm Calm -- 30.19 in1022.4 mb - 0.00 in0.0 mm 0.00 in0.0 mm
01:37 AM 60.6°F15.9°C 57.0°F13.9°C 88% Calm Calm -- 30.19 in1022.4 mb - 0.00 in0.0 mm 0.00 in0.0 mm
01:32 AM 60.8°F16.0°C 57.2°F14.0°C 88% Calm Calm -- 30.19 in1022.4 mb - 0.00 in0.0 mm 0.00 in0.0 mm
01:27 AM 61.0°F16.1°C 57.4°F14.1°C 88% Calm Calm -- 30.19 in1022.4 mb - 0.00 in0.0 mm 0.00 in0.0 mm
01:22 AM 61.2°F16.2°C 57.6°F14.2°C 88% Calm Calm -- 30.19 in1022.4 mb - 0.00 in0.0 mm 0.00 in0.0 mm
01:17 AM 61.3°F16.3°C 57.7°F14.3°C 88% Calm Calm -- 30.19 in1022.4 mb - 0.00 in0.0 mm 0.00 in0.0 mm
01:12 AM 61.5°F16.4°C 57.9°F14.4°C 88% Calm Calm -- 30.19 in1022.4 mb - 0.00 in0.0 mm 0.00 in0.0 mm
01:07 AM 61.5°F16.4°C 57.9°F14.4°C 88% Calm Calm -- 30.19 in1022.4 mb - 0.00 in0.0 mm 0.00 in0.0 mm
01:02 AM 61.7°F16.5°C 57.7°F14.3°C 87% Calm Calm -- 30.20 in1022.7 mb - 0.00 in0.0 mm 0.00 in0.0 mm
12:57 AM 62.1°F16.7°C 58.1°F14.5°C 87% Calm Calm -- 30.20 in1022.7 mb - 0.00 in0.0 mm 0.00 in0.0 mm
12:52 AM 62.2°F16.8°C 58.3°F14.6°C 87% Calm Calm -- 30.20 in1022.7 mb - 0.00 in0.0 mm 0.00 in0.0 mm
12:47 AM 62.4°F16.9°C 58.5°F14.7°C 87% Calm Calm -- 30.20 in1022.7 mb - 0.00 in0.0 mm 0.00 in0.0 mm
12:42 AM 62.6°F17.0°C 58.6°F14.8°C 87% Calm Calm -- 30.20 in1022.7 mb - 0.00 in0.0 mm 0.00 in0.0 mm
12:37 AM 62.8°F17.1°C 58.8°F14.9°C 87% Calm Calm -- 30.20 in1022.7 mb - 0.00 in0.0 mm 0.00 in0.0 mm
12:32 AM 63.0°F17.2°C 59.0°F15.0°C 87% Calm Calm -- 30.20 in1022.7 mb - 0.00 in0.0 mm 0.00 in0.0 mm
12:27 AM 63.1°F17.3°C 59.2°F15.1°C 87% Calm Calm -- 30.20 in1022.7 mb - 0.00 in0.0 mm 0.00 in0.0 mm
12:22 AM 63.3°F17.4°C 59.4°F15.2°C 87% Calm Calm -- 30.20 in1022.7 mb - 0.00 in0.0 mm 0.00 in0.0 mm
12:17 AM 63.3°F17.4°C 59.4°F15.2°C 87% Calm Calm -- 30.20 in1022.7 mb - 0.00 in0.0 mm 0.00 in0.0 mm
12:12 AM 63.3°F17.4°C 59.4°F15.2°C 87% Calm Calm -- 30.20 in1022.7 mb - 0.00 in0.0 mm 0.00 in0.0 mm
12:07 AM 63.5°F17.5°C 59.5°F15.3°C 87% Calm Calm -- 30.21 in1023.0 mb - 0.00 in0.0 mm 0.00 in0.0 mm
12:02 AM 63.5°F17.5°C 59.9°F15.5°C 88% Calm Calm -- 30.21 in1023.0 mb - 0.00 in0.0 mm 0.00 in0.0 mm